PWSweather.com
Personal Weather Stations
Station Observations
REBOX73
Petalia At Mount Pantokrator, CorfuGR 49081

Petalia At Mount PantokratorCorfuGR 49081

Lat: 39.747915, Lon: 19.841466

Elevation: 2132

Station Type: ws1080

http://pantokratoras-kerkyra.meteoclub.gr/

Latest ConditionsUpdated 6:15:01 PM GMT+01:01 Saturday, Oct 21, 2017
Currently Today's Max Today's Min Today's Average
Temperature 59.2°F15.1°C 67.3°F19.6°C 51.4°F10.8°C 59.6°F15.3°C
Dew Point 57.7°F14.3°C 58.7°F14.8°C 50.2°F10.1°C 54.7°F12.6°C
Winds 1.0 mph NE1.6 kmh NE 3.0 mph WNW4.8 kmh WNW - 0.8 mph 1.3 kmh
Wind Gusts 3.0 mph4.8 kmh 8.0 mph12.9 kmh - -
Humidity 95% 100% 63% 85%
Pressure 30.13 in1020.3 mb 30.19 in1022.4 mb 30.12 in1020.0 mb -
Precipitation - 0.01 in0.3 mm - -
Hour Temp Dew Point Humidity Winds Wind Gusts Pressure Precip Precip Rate Daily Precip Total
06:15 PM 59.2°F15.1°C 57.7°F14.3°C 95% 1.0 mph NE1.6 kmh NE 3.0 mph4.8 kmh 30.13 in1020.3 mb 0.00 in0.0 mm 0.00 in0.0 mm 0.01 in0.3 mm
06:00 PM 59.2°F15.1°C 57.7°F14.3°C 95% Calm Calm 2.0 mph3.2 kmh 30.13 in1020.3 mb 0.00 in0.0 mm 0.00 in0.0 mm 0.01 in0.3 mm
05:45 PM 59.2°F15.1°C 57.7°F14.3°C 95% Calm Calm 1.0 mph1.6 kmh 30.13 in1020.3 mb 0.00 in0.0 mm 0.00 in0.0 mm 0.01 in0.3 mm
05:30 PM 59.4°F15.2°C 57.6°F14.2°C 94% Calm Calm 4.0 mph6.4 kmh 30.13 in1020.3 mb 0.00 in0.0 mm 0.00 in0.0 mm 0.01 in0.3 mm
05:15 PM 59.5°F15.3°C 57.8°F14.3°C 94% 1.0 mph SW1.6 kmh SW 5.0 mph8.0 kmh 30.13 in1020.3 mb 0.00 in0.0 mm 0.00 in0.0 mm 0.01 in0.3 mm
05:00 PM 59.5°F15.3°C 57.8°F14.3°C 94% 1.0 mph WSW1.6 kmh WSW 4.0 mph6.4 kmh 30.13 in1020.3 mb 0.00 in0.0 mm 0.00 in0.0 mm 0.01 in0.3 mm
04:45 PM 59.5°F15.3°C 57.5°F14.2°C 93% 1.0 mph WNW1.6 kmh WNW 4.0 mph6.4 kmh 30.12 in1020.0 mb 0.00 in0.0 mm 0.00 in0.0 mm 0.01 in0.3 mm
04:30 PM 59.7°F15.4°C 57.7°F14.3°C 93% 1.0 mph W1.6 kmh W 4.0 mph6.4 kmh 30.12 in1020.0 mb 0.00 in0.0 mm 0.00 in0.0 mm 0.01 in0.3 mm
04:15 PM 60.1°F15.6°C 58.0°F14.4°C 93% 2.0 mph WSW3.2 kmh WSW 6.0 mph9.7 kmh 30.12 in1020.0 mb 0.00 in0.0 mm 0.00 in0.0 mm 0.01 in0.3 mm
04:00 PM 60.3°F15.7°C 57.9°F14.4°C 92% 2.0 mph WSW3.2 kmh WSW 7.0 mph11.3 kmh 30.12 in1020.0 mb 0.00 in0.0 mm 0.00 in0.0 mm 0.01 in0.3 mm
03:45 PM 61.0°F16.1°C 58.3°F14.6°C 91% 1.0 mph WNW1.6 kmh WNW 6.0 mph9.7 kmh 30.12 in1020.0 mb 0.00 in0.0 mm 0.00 in0.0 mm 0.01 in0.3 mm
03:30 PM 61.9°F16.6°C 58.6°F14.8°C 89% 1.0 mph NNW1.6 kmh NNW 4.0 mph6.4 kmh 30.12 in1020.0 mb 0.00 in0.0 mm 0.00 in0.0 mm 0.01 in0.3 mm
03:15 PM 63.1°F17.3°C 58.6°F14.8°C 85% 2.0 mph NW3.2 kmh NW 5.0 mph8.0 kmh 30.12 in1020.0 mb 0.00 in0.0 mm 0.00 in0.0 mm 0.01 in0.3 mm
03:00 PM 64.6°F18.1°C 58.6°F14.8°C 81% 2.0 mph NW3.2 kmh NW 5.0 mph8.0 kmh 30.12 in1020.0 mb 0.00 in0.0 mm 0.00 in0.0 mm 0.01 in0.3 mm
02:45 PM 64.6°F18.1°C 57.9°F14.4°C 79% 2.0 mph WNW3.2 kmh WNW 7.0 mph11.3 kmh 30.13 in1020.3 mb 0.00 in0.0 mm 0.00 in0.0 mm 0.01 in0.3 mm
02:30 PM 65.7°F18.7°C 57.9°F14.4°C 76% 3.0 mph WNW4.8 kmh WNW 8.0 mph12.9 kmh 30.13 in1020.3 mb 0.00 in0.0 mm 0.00 in0.0 mm 0.01 in0.3 mm
02:15 PM 67.3°F19.6°C 58.7°F14.8°C 74% 1.0 mph W1.6 kmh W 3.0 mph4.8 kmh 30.13 in1020.3 mb 0.00 in0.0 mm 0.00 in0.0 mm 0.01 in0.3 mm
02:00 PM 67.3°F19.6°C 58.7°F14.8°C 74% 2.0 mph NW3.2 kmh NW 5.0 mph8.0 kmh 30.13 in1020.3 mb 0.00 in0.0 mm 0.00 in0.0 mm 0.01 in0.3 mm
01:45 PM 67.3°F19.6°C 57.9°F14.4°C 72% 2.0 mph NNW3.2 kmh NNW 4.0 mph6.4 kmh 30.13 in1020.3 mb 0.00 in0.0 mm 0.00 in0.0 mm 0.01 in0.3 mm
01:30 PM 66.6°F19.2°C 54.8°F12.7°C 66% 2.0 mph NNE3.2 kmh NNE 6.0 mph9.7 kmh 30.13 in1020.3 mb 0.00 in0.0 mm 0.00 in0.0 mm 0.01 in0.3 mm
01:15 PM 66.4°F19.1°C 55.5°F13.1°C 68% 2.0 mph NW3.2 kmh NW 4.0 mph6.4 kmh 30.13 in1020.3 mb 0.00 in0.0 mm 0.00 in0.0 mm 0.01 in0.3 mm
01:00 PM 66.2°F19.0°C 55.3°F12.9°C 68% 2.0 mph NNW3.2 kmh NNW 5.0 mph8.0 kmh 30.13 in1020.3 mb 0.00 in0.0 mm 0.00 in0.0 mm 0.01 in0.3 mm
12:45 PM 65.8°F18.8°C 54.2°F12.3°C 66% 2.0 mph N3.2 kmh N 5.0 mph8.0 kmh 30.13 in1020.3 mb 0.00 in0.0 mm 0.00 in0.0 mm 0.01 in0.3 mm
12:30 PM 65.8°F18.8°C 53.3°F11.8°C 64% 2.0 mph N3.2 kmh N 7.0 mph11.3 kmh 30.14 in1020.7 mb 0.00 in0.0 mm 0.00 in0.0 mm 0.01 in0.3 mm
12:15 PM 65.8°F18.8°C 53.3°F11.8°C 64% 2.0 mph NW3.2 kmh NW 4.0 mph6.4 kmh 30.14 in1020.7 mb 0.00 in0.0 mm 0.00 in0.0 mm 0.01 in0.3 mm
12:00 PM 65.8°F18.8°C 54.2°F12.3°C 66% 1.0 mph NNW1.6 kmh NNW 4.0 mph6.4 kmh 30.15 in1021.0 mb 0.00 in0.0 mm 0.00 in0.0 mm 0.01 in0.3 mm
11:45 AM 65.5°F18.6°C 54.6°F12.6°C 68% 2.0 mph N3.2 kmh N 7.0 mph11.3 kmh 30.16 in1021.3 mb 0.00 in0.0 mm 0.00 in0.0 mm 0.01 in0.3 mm
11:30 AM 65.7°F18.7°C 52.7°F11.5°C 63% 1.0 mph NNW1.6 kmh NNW 6.0 mph9.7 kmh 30.16 in1021.3 mb 0.00 in0.0 mm 0.00 in0.0 mm 0.01 in0.3 mm
11:15 AM 64.9°F18.3°C 53.3°F11.8°C 66% 1.0 mph NW1.6 kmh NW 4.0 mph6.4 kmh 30.16 in1021.3 mb 0.00 in0.0 mm 0.00 in0.0 mm 0.01 in0.3 mm
11:00 AM 64.6°F18.1°C 53.0°F11.7°C 66% 2.0 mph NW3.2 kmh NW 6.0 mph9.7 kmh 30.16 in1021.3 mb 0.00 in0.0 mm 0.00 in0.0 mm 0.01 in0.3 mm
10:45 AM 64.6°F18.1°C 53.0°F11.7°C 66% 1.0 mph NW1.6 kmh NW 6.0 mph9.7 kmh 30.16 in1021.3 mb 0.00 in0.0 mm 0.00 in0.0 mm 0.01 in0.3 mm
10:30 AM 64.0°F17.8°C 53.7°F12.1°C 69% 1.0 mph N1.6 kmh N 7.0 mph11.3 kmh 30.17 in1021.7 mb 0.00 in0.0 mm 0.00 in0.0 mm 0.01 in0.3 mm
10:15 AM 63.9°F17.7°C 53.1°F11.7°C 68% 2.0 mph NNE3.2 kmh NNE 6.0 mph9.7 kmh 30.17 in1021.7 mb 0.00 in0.0 mm 0.00 in0.0 mm 0.01 in0.3 mm
10:00 AM 63.9°F17.7°C 52.3°F11.3°C 66% 1.0 mph NW1.6 kmh NW 5.0 mph8.0 kmh 30.17 in1021.7 mb 0.00 in0.0 mm 0.00 in0.0 mm 0.01 in0.3 mm
09:45 AM 63.9°F17.7°C 51.4°F10.8°C 64% 2.0 mph NW3.2 kmh NW 5.0 mph8.0 kmh 30.17 in1021.7 mb 0.00 in0.0 mm 0.00 in0.0 mm 0.01 in0.3 mm
09:30 AM 63.9°F17.7°C 51.4°F10.8°C 64% 1.0 mph NW1.6 kmh NW 4.0 mph6.4 kmh 30.17 in1021.7 mb 0.00 in0.0 mm 0.00 in0.0 mm 0.01 in0.3 mm
09:15 AM 63.0°F17.2°C 51.4°F10.8°C 66% 1.0 mph N1.6 kmh N 4.0 mph6.4 kmh 30.17 in1021.7 mb 0.00 in0.0 mm 0.00 in0.0 mm 0.01 in0.3 mm
09:00 AM 62.2°F16.8°C 52.3°F11.3°C 70% 2.0 mph NE3.2 kmh NE 7.0 mph11.3 kmh 30.17 in1021.7 mb 0.00 in0.0 mm 0.00 in0.0 mm 0.01 in0.3 mm
08:45 AM 61.5°F16.4°C 53.2°F11.8°C 74% 1.0 mph NNE1.6 kmh NNE 3.0 mph4.8 kmh 30.17 in1021.7 mb 0.00 in0.0 mm 0.00 in0.0 mm 0.01 in0.3 mm
08:30 AM 60.6°F15.9°C 53.7°F12.1°C 78% 1.0 mph NE1.6 kmh NE 5.0 mph8.0 kmh 30.17 in1021.7 mb 0.00 in0.0 mm 0.00 in0.0 mm 0.01 in0.3 mm
08:15 AM 60.1°F15.6°C 53.2°F11.8°C 78% 1.0 mph NE1.6 kmh NE 3.0 mph4.8 kmh 30.18 in1022.0 mb 0.00 in0.0 mm 0.00 in0.0 mm 0.01 in0.3 mm
08:00 AM 59.0°F15.0°C 53.2°F11.8°C 81% Calm Calm 1.0 mph1.6 kmh 30.17 in1021.7 mb 0.00 in0.0 mm 0.00 in0.0 mm 0.01 in0.3 mm
07:45 AM 57.4°F14.1°C 52.6°F11.4°C 84% Calm Calm 2.0 mph3.2 kmh 30.17 in1021.7 mb 0.00 in0.0 mm 0.00 in0.0 mm 0.01 in0.3 mm
07:30 AM 56.1°F13.4°C 52.0°F11.1°C 86% Calm Calm 2.0 mph3.2 kmh 30.17 in1021.7 mb 0.00 in0.0 mm 0.00 in0.0 mm 0.01 in0.3 mm
07:15 AM 53.2°F11.8°C 52.1°F11.2°C 96% Calm Calm 1.0 mph1.6 kmh 30.17 in1021.7 mb 0.00 in0.0 mm 0.00 in0.0 mm 0.01 in0.3 mm
07:00 AM 52.3°F11.3°C 51.2°F10.7°C 96% Calm Calm -- 30.16 in1021.3 mb 0.00 in0.0 mm 0.00 in0.0 mm 0.01 in0.3 mm
06:45 AM 52.2°F11.2°C 51.1°F10.6°C 96% Calm Calm -- 30.16 in1021.3 mb 0.00 in0.0 mm 0.00 in0.0 mm 0.01 in0.3 mm
06:30 AM 51.8°F11.0°C 50.7°F10.4°C 96% Calm Calm -- 30.16 in1021.3 mb 0.00 in0.0 mm 0.00 in0.0 mm 0.01 in0.3 mm
06:15 AM 51.6°F10.9°C 50.5°F10.3°C 96% Calm Calm -- 30.15 in1021.0 mb 0.00 in0.0 mm 0.00 in0.0 mm 0.01 in0.3 mm
06:00 AM 51.4°F10.8°C 50.3°F10.2°C 96% Calm Calm -- 30.15 in1021.0 mb 0.00 in0.0 mm 0.00 in0.0 mm 0.01 in0.3 mm
05:45 AM 51.6°F10.9°C 50.2°F10.1°C 95% Calm Calm -- 30.16 in1021.3 mb 0.00 in0.0 mm 0.00 in0.0 mm 0.01 in0.3 mm
05:30 AM 52.3°F11.3°C 51.0°F10.6°C 95% Calm Calm -- 30.16 in1021.3 mb 0.00 in0.0 mm 0.00 in0.0 mm 0.01 in0.3 mm
05:15 AM 52.7°F11.5°C 51.3°F10.7°C 95% Calm Calm -- 30.16 in1021.3 mb 0.00 in0.0 mm 0.00 in0.0 mm 0.01 in0.3 mm
05:00 AM 53.1°F11.7°C 51.7°F10.9°C 95% Calm Calm -- 30.16 in1021.3 mb 0.00 in0.0 mm 0.00 in0.0 mm 0.01 in0.3 mm
04:45 AM 53.6°F12.0°C 52.2°F11.2°C 95% Calm Calm -- 30.16 in1021.3 mb 0.00 in0.0 mm 0.00 in0.0 mm 0.01 in0.3 mm
04:30 AM 54.5°F12.5°C 53.1°F11.7°C 95% Calm Calm 1.0 mph1.6 kmh 30.16 in1021.3 mb 0.00 in0.0 mm 0.00 in0.0 mm 0.01 in0.3 mm
04:15 AM 55.0°F12.8°C 53.3°F11.8°C 94% Calm Calm 2.0 mph3.2 kmh 30.16 in1021.3 mb 0.00 in0.0 mm 0.00 in0.0 mm 0.01 in0.3 mm
04:00 AM 55.6°F13.1°C 54.2°F12.3°C 95% Calm Calm 2.0 mph3.2 kmh 30.16 in1021.3 mb 0.00 in0.0 mm 0.00 in0.0 mm 0.01 in0.3 mm
03:45 AM 56.5°F13.6°C 55.6°F13.1°C 97% Calm Calm 2.0 mph3.2 kmh 30.16 in1021.3 mb 0.00 in0.0 mm 0.00 in0.0 mm 0.01 in0.3 mm
03:30 AM 55.8°F13.2°C 54.6°F12.6°C 96% Calm Calm 2.0 mph3.2 kmh 30.16 in1021.3 mb 0.01 in0.3 mm 0.00 in0.0 mm 0.01 in0.3 mm
03:15 AM 55.4°F13.0°C 54.0°F12.2°C 95% Calm Calm 1.0 mph1.6 kmh 30.16 in1021.3 mb 0.01 in0.3 mm 0.00 in0.0 mm 0.01 in0.3 mm
03:00 AM 55.4°F13.0°C 53.7°F12.1°C 94% Calm Calm 1.0 mph1.6 kmh 30.16 in1021.3 mb 0.01 in0.3 mm 0.00 in0.0 mm 0.01 in0.3 mm
02:45 AM 56.1°F13.4°C 54.7°F12.6°C 95% Calm Calm 2.0 mph3.2 kmh 30.16 in1021.3 mb 0.01 in0.3 mm 0.04 in1.0 mm 0.01 in0.3 mm
02:30 AM 56.3°F13.5°C 55.2°F12.9°C 96% Calm Calm 2.0 mph3.2 kmh 30.17 in1021.7 mb 0.00 in0.0 mm 0.00 in0.0 mm 0.00 in0.0 mm
02:15 AM 56.8°F13.8°C 56.0°F13.3°C 97% 1.0 mph NE1.6 kmh NE 4.0 mph6.4 kmh 30.17 in1021.7 mb 0.00 in0.0 mm 0.00 in0.0 mm 0.00 in0.0 mm
02:00 AM 57.2°F14.0°C 56.4°F13.6°C 97% 1.0 mph E1.6 kmh E 2.0 mph3.2 kmh 30.17 in1021.7 mb 0.00 in0.0 mm 0.00 in0.0 mm 0.00 in0.0 mm
01:45 AM 57.2°F14.0°C 56.4°F13.6°C 97% Calm Calm 2.0 mph3.2 kmh 30.18 in1022.0 mb 0.00 in0.0 mm 0.00 in0.0 mm 0.00 in0.0 mm
01:30 AM 56.8°F13.8°C 56.0°F13.3°C 97% Calm Calm 2.0 mph3.2 kmh 30.18 in1022.0 mb 0.00 in0.0 mm 0.00 in0.0 mm 0.00 in0.0 mm
01:15 AM 57.0°F13.9°C 56.2°F13.4°C 97% Calm Calm 2.0 mph3.2 kmh 30.18 in1022.0 mb 0.00 in0.0 mm 0.00 in0.0 mm 0.00 in0.0 mm
01:00 AM 57.6°F14.2°C 56.7°F13.7°C 97% Calm Calm 1.0 mph1.6 kmh 30.18 in1022.0 mb 0.00 in0.0 mm 0.00 in0.0 mm 0.00 in0.0 mm
12:45 AM 57.7°F14.3°C 56.9°F13.8°C 97% Calm Calm 2.0 mph3.2 kmh 30.19 in1022.4 mb 0.00 in0.0 mm 0.00 in0.0 mm 0.00 in0.0 mm
12:30 AM 57.7°F14.3°C 57.7°F14.3°C 100% 1.0 mph N1.6 kmh N 6.0 mph9.7 kmh 30.19 in1022.4 mb 0.00 in0.0 mm 0.00 in0.0 mm 0.00 in0.0 mm
12:15 AM 56.5°F13.6°C 55.6°F13.1°C 97% Calm Calm 1.0 mph1.6 kmh 30.19 in1022.4 mb 0.00 in0.0 mm 0.00 in0.0 mm 0.00 in0.0 mm
12:00 AM 55.9°F13.3°C 55.1°F12.8°C 97% Calm Calm 1.0 mph1.6 kmh 30.19 in1022.4 mb 0.00 in0.0 mm 0.00 in0.0 mm 0.00 in0.0 mm